Enter the Airport ICAO Code

Search by Airport or City

Current Weather

KMFE | McAllen Miller International Airport

McAllen, Texas, United States

Last Update 7 Minutes Ago

Clear Sky at Low Altitude

Temperature of 26 ºC

Light to Moderate Winds from SouthEast

Temperature

26 ºC

Dew Point Temperature

23 ºC

Relative Humidity

83.66 %

Wind Direction

SouthEast (140º, Without Significant Variations)

Wind Velocity

13 km/h (07 kt)

Gusts

None

Visibility

Greater than 10 Miles

Sea Level Pressure

29.91 inHg (Inches of Mercury)

Layers of Clouds

None

METAR KMFE 131253Z 14007KT 10SM CLR 26/23 A2991 RMK AO2 SLP125 T02560233

Weather Forecast

KMFE | McAllen Miller International Airport

McAllen, Texas, United States

Forecast valid for the next 23 Hours

From now on it is expected:

Partly Cloudy Sky

Light to Moderate Winds from South

In 1 hour it is expected the begining of:

Moderate Winds from South with Gusts

In 16 hours it is expected the begining of:

Clear Sky

Moderate Winds from SouthEast

Maximum Temperature

No Data

Minimum Temperature

No Data

TAF KMFE 131120Z 1312/1412 16009KT P6SM SCT015 FM131400 16013G18KT P6SM SCT200 FM140500 15010KT P6SM SKC